createdAt,value
2022-12-09T00:02:56.480Z,99966.53
2022-12-09T00:05:59.161Z,99957.47
2022-12-09T00:09:01.900Z,99949.28
2022-12-09T00:12:04.381Z,99959.06
2022-12-09T00:15:07.208Z,99961.91
2022-12-09T00:18:10.603Z,99942.66
2022-12-09T00:21:19.429Z,99936.84
2022-12-09T00:24:21.844Z,99941.97
2022-12-09T00:27:26.720Z,99956.25
2022-12-09T00:30:29.056Z,99973.19
2022-12-09T00:33:33.200Z,99981.63
2022-12-09T00:36:35.845Z,99989.81
2022-12-09T00:39:38.138Z,99990.38
2022-12-09T00:42:40.407Z,99991.97
2022-12-09T00:45:42.874Z,99982.63
2022-12-09T00:48:46.215Z,99989.69
2022-12-09T00:51:48.619Z,99974.28
2022-12-09T00:54:51.069Z,99972.22
2022-12-09T00:57:53.587Z,99960.25
2022-12-09T01:00:56.271Z,99964.59
2022-12-09T01:03:59.326Z,99958.84
2022-12-09T01:07:02.035Z,99964.91
2022-12-09T01:10:06.273Z,99973.00
2022-12-09T01:13:12.029Z,99977.13
2022-12-09T01:16:20.073Z,99979.66
2022-12-09T01:19:23.670Z,99970.97
2022-12-09T01:22:26.528Z,99969.63
2022-12-09T01:25:28.938Z,99972.69
2022-12-09T01:28:31.741Z,99975.38
2022-12-09T01:31:34.268Z,99966.31
2022-12-09T01:34:38.329Z,99972.63
2022-12-09T01:37:40.973Z,99966.63
2022-12-09T01:40:47.699Z,99947.00
2022-12-09T01:44:08.106Z,99961.03
2022-12-09T01:47:22.301Z,99954.00
2022-12-09T01:50:26.552Z,99950.84
2022-12-09T01:53:34.650Z,99946.91
2022-12-09T01:56:39.147Z,99948.72
2022-12-09T01:59:43.631Z,99942.13
2022-12-09T02:02:48.875Z,99943.94
2022-12-09T02:05:54.606Z,99954.56
2022-12-09T02:08:58.466Z,99958.44
2022-12-09T02:12:21.642Z,99957.97
2022-12-09T02:15:30.808Z,99962.38
2022-12-09T02:18:51.098Z,99958.03
2022-12-09T02:22:00.075Z,99949.59
2022-12-09T02:25:26.547Z,99967.19
2022-12-09T02:28:50.513Z,99960.41
2022-12-09T02:32:28.915Z,99938.47
2022-12-09T02:35:53.473Z,99930.22
2022-12-09T02:38:59.487Z,99928.69
2022-12-09T02:42:06.705Z,99929.50
2022-12-09T02:45:13.531Z,99927.81
2022-12-09T02:48:23.589Z,99938.31
2022-12-09T02:51:29.837Z,99936.75
2022-12-09T02:54:34.425Z,99940.69
2022-12-09T02:57:38.821Z,99932.66
2022-12-09T03:00:42.144Z,99927.69
2022-12-09T03:03:45.368Z,99925.63
2022-12-09T03:06:52.472Z,99934.22
2022-12-09T03:10:06.976Z,99924.84
2022-12-09T03:13:29.189Z,99926.97
2022-12-09T03:16:40.435Z,99924.38
2022-12-09T03:19:48.966Z,99908.69
2022-12-09T03:22:57.132Z,99916.09
2022-12-09T03:26:01.760Z,99933.28
2022-12-09T03:29:11.161Z,99930.44
2022-12-09T03:32:15.498Z,99941.88
2022-12-09T03:35:23.852Z,99948.09
2022-12-09T03:38:31.073Z,99933.75
2022-12-09T03:41:34.780Z,99934.06
2022-12-09T03:45:01.268Z,99941.53
2022-12-09T03:48:09.103Z,99933.19
2022-12-09T03:51:21.923Z,99919.00
2022-12-09T03:54:34.026Z,99918.28
2022-12-09T03:57:40.485Z,99922.94
2022-12-09T04:00:43.813Z,99931.75
2022-12-09T04:03:50.144Z,99933.16
2022-12-09T04:06:54.374Z,99929.00
2022-12-09T04:09:57.150Z,99933.88
2022-12-09T04:12:59.559Z,99930.66
2022-12-09T04:16:01.867Z,99926.06
2022-12-09T04:19:04.519Z,99921.34
2022-12-09T04:22:07.204Z,99917.19
2022-12-09T04:25:10.319Z,99906.75
2022-12-09T04:28:12.706Z,99904.97
2022-12-09T04:31:16.762Z,99909.38
2022-12-09T04:34:19.778Z,99904.41
2022-12-09T04:37:22.082Z,99910.72
2022-12-09T04:40:25.011Z,99904.16
2022-12-09T04:43:28.454Z,99906.75
2022-12-09T04:46:30.993Z,99902.28
2022-12-09T04:49:33.571Z,99895.56
2022-12-09T04:52:36.103Z,99897.16
2022-12-09T04:55:38.397Z,99905.50
2022-12-09T04:58:41.735Z,99910.00
2022-12-09T05:01:44.429Z,99909.50
2022-12-09T05:04:47.161Z,99908.25
2022-12-09T05:07:50.209Z,99910.84
2022-12-09T05:10:52.745Z,99897.03
2022-12-09T05:13:56.095Z,99901.38
2022-12-09T05:16:58.773Z,99896.72
2022-12-09T05:20:01.514Z,99906.66
2022-12-09T05:23:09.139Z,99906.72
2022-12-09T05:26:15.250Z,99910.19
2022-12-09T05:29:22.559Z,99914.16
2022-12-09T05:32:29.703Z,99912.88
2022-12-09T05:35:32.849Z,99912.06
2022-12-09T05:38:36.485Z,99903.72
2022-12-09T05:41:38.940Z,99909.88
2022-12-09T05:44:41.202Z,99895.22
2022-12-09T05:47:43.504Z,99900.59
2022-12-09T05:51:00.020Z,99890.97
2022-12-09T05:54:04.750Z,99884.75
2022-12-09T05:57:07.972Z,99883.94
2022-12-09T06:00:11.845Z,99884.97
2022-12-09T06:03:16.101Z,99882.69
2022-12-09T06:06:20.765Z,99883.22
2022-12-09T06:09:23.449Z,99879.59
2022-12-09T06:12:26.311Z,99881.50
2022-12-09T06:15:33.248Z,99876.81
2022-12-09T06:18:37.710Z,99873.25
2022-12-09T06:21:41.667Z,99874.81
2022-12-09T06:24:46.669Z,99873.25
2022-12-09T06:27:49.769Z,99875.22
2022-12-09T06:30:52.400Z,99872.34
2022-12-09T06:33:57.559Z,99868.47
2022-12-09T06:37:01.457Z,99858.06
2022-12-09T06:40:04.613Z,99856.19
2022-12-09T06:43:07.512Z,99866.13
2022-12-09T06:46:16.506Z,99871.03
2022-12-09T06:49:19.326Z,99868.09
2022-12-09T06:52:22.167Z,99867.41
2022-12-09T06:55:24.881Z,99872.91
2022-12-09T06:58:27.804Z,99864.66
2022-12-09T07:01:30.267Z,99859.13
2022-12-09T07:04:33.260Z,99858.41
2022-12-09T07:07:36.220Z,99859.25
2022-12-09T07:10:40.070Z,99863.66
2022-12-09T07:13:42.465Z,99864.78
2022-12-09T07:16:45.327Z,99858.25
2022-12-09T07:19:49.123Z,99860.91
2022-12-09T07:22:51.539Z,99855.00
2022-12-09T07:25:57.844Z,99850.94
2022-12-09T07:29:04.630Z,99846.31
2022-12-09T07:32:10.839Z,99850.13
2022-12-09T07:35:14.602Z,99848.00
2022-12-09T07:38:17.759Z,99841.66
2022-12-09T07:41:20.319Z,99851.13
2022-12-09T07:44:24.091Z,99850.28
2022-12-09T07:47:26.519Z,99857.63
2022-12-09T07:50:29.131Z,99850.09
2022-12-09T07:53:32.144Z,99847.53
2022-12-09T07:56:35.084Z,99846.88
2022-12-09T07:59:37.915Z,99849.19
2022-12-09T08:02:40.284Z,99846.56
2022-12-09T08:05:53.252Z,99840.88
2022-12-09T08:09:01.036Z,99841.97
2022-12-09T08:12:04.478Z,99832.69
2022-12-09T08:15:08.005Z,99840.31
2022-12-09T08:18:11.178Z,99830.41
2022-12-09T08:21:17.724Z,99833.81
2022-12-09T08:24:20.543Z,99824.38
2022-12-09T08:27:23.235Z,99827.72
2022-12-09T08:30:26.478Z,99826.78
2022-12-09T08:33:29.258Z,99823.41
2022-12-09T08:36:31.939Z,99813.78
2022-12-09T08:39:34.409Z,99817.22
2022-12-09T08:42:37.294Z,99819.31
2022-12-09T08:45:41.789Z,99814.78
2022-12-09T08:48:44.714Z,99808.91
2022-12-09T08:51:49.516Z,99811.22
2022-12-09T08:54:51.839Z,99806.22
2022-12-09T08:57:54.696Z,99798.41
2022-12-09T09:00:57.421Z,99796.28
2022-12-09T09:04:06.301Z,99796.84
2022-12-09T09:07:09.053Z,99789.53
2022-12-09T09:10:13.194Z,99785.13
2022-12-09T09:13:15.894Z,99784.00
2022-12-09T09:16:20.960Z,99774.44
2022-12-09T09:19:26.171Z,99768.63
2022-12-09T09:22:29.887Z,99760.72
2022-12-09T09:25:32.576Z,99771.16
2022-12-09T09:28:35.492Z,99766.94
2022-12-09T09:31:38.379Z,99768.25
2022-12-09T09:34:40.902Z,99766.19
2022-12-09T09:37:43.854Z,99759.97
2022-12-09T09:40:47.076Z,99761.31
2022-12-09T09:43:50.557Z,99753.78
2022-12-09T09:46:54.535Z,99740.47
2022-12-09T09:50:51.819Z,99747.00
2022-12-09T09:53:55.563Z,99742.75
2022-12-09T09:57:10.342Z,99733.84
2022-12-09T10:00:23.097Z,99738.06
2022-12-09T10:03:53.615Z,99732.75
2022-12-09T10:07:08.308Z,99724.13
2022-12-09T10:10:36.114Z,99712.66
2022-12-09T10:13:51.704Z,99701.94
2022-12-09T10:17:09.885Z,99695.94
2022-12-09T10:20:17.823Z,99691.78
2022-12-09T10:23:23.304Z,99682.84
2022-12-09T10:26:29.268Z,99679.53
2022-12-09T10:29:55.828Z,99677.16
2022-12-09T10:32:58.754Z,99650.28
2022-12-09T10:36:02.964Z,99648.19
2022-12-09T10:39:06.001Z,99643.47
2022-12-09T10:42:34.659Z,99618.19
2022-12-09T10:49:22.713Z,99605.22
2022-12-09T10:52:43.160Z,99612.50
2022-12-09T10:55:52.267Z,99595.81
2022-12-09T10:59:22.515Z,99578.06
2022-12-09T11:02:25.720Z,99580.16
2022-12-09T11:05:31.934Z,99572.03
2022-12-09T11:08:35.286Z,99573.84
2022-12-09T11:11:49.780Z,99581.94
2022-12-09T11:15:01.418Z,99556.91
2022-12-09T11:18:07.909Z,99546.50
2022-12-09T11:21:30.816Z,99546.75
2022-12-09T11:24:33.914Z,99539.94
2022-12-09T11:27:36.292Z,99547.25
2022-12-09T11:31:27.700Z,99537.06
2022-12-09T11:34:25.217Z,99539.66
2022-12-09T11:37:28.872Z,99532.59
2022-12-09T11:40:32.289Z,99540.16
2022-12-09T11:43:46.531Z,99526.34
2022-12-09T11:47:06.620Z,99511.47
2022-12-09T11:50:18.188Z,99522.69
2022-12-09T11:53:29.012Z,99517.97
2022-12-09T11:56:33.226Z,99499.25
2022-12-09T11:59:49.027Z,99489.84
2022-12-09T12:03:03.767Z,99503.69
2022-12-09T12:06:16.457Z,99518.31
2022-12-09T12:09:18.729Z,99515.19
2022-12-09T12:12:41.136Z,99496.91
2022-12-09T12:16:08.835Z,99490.66
2022-12-09T12:19:40.406Z,99492.50
2022-12-09T12:23:03.944Z,99499.28
2022-12-09T12:26:24.177Z,99491.72
2022-12-09T12:29:44.874Z,99486.78
2022-12-09T12:37:11.799Z,99473.22
2022-12-09T12:40:40.244Z,99472.69
2022-12-09T12:44:31.565Z,99453.88
2022-12-09T12:47:45.934Z,99458.59
2022-12-09T12:50:55.283Z,99455.19
2022-12-09T12:54:02.245Z,99449.19
2022-12-09T12:57:27.619Z,99451.78
2022-12-09T13:00:47.095Z,99442.69
2022-12-09T13:04:20.690Z,99451.03
2022-12-09T13:07:44.433Z,99446.81
2022-12-09T13:10:55.111Z,99448.13
2022-12-09T13:14:03.451Z,99442.38
2022-12-09T13:17:08.266Z,99434.56
2022-12-09T13:20:20.751Z,99427.53
2022-12-09T13:23:47.494Z,99432.75
2022-12-09T13:26:59.126Z,99430.13
2022-12-09T13:30:03.310Z,99435.38
2022-12-09T13:33:26.742Z,99424.41
2022-12-09T13:36:42.430Z,99423.34
2022-12-09T13:39:44.640Z,99427.00
2022-12-09T13:42:58.387Z,99419.69
2022-12-09T13:46:02.273Z,99421.00
2022-12-09T13:49:18.373Z,99415.25
2022-12-09T13:52:42.656Z,99414.75
2022-12-09T13:55:56.893Z,99403.50
2022-12-09T13:59:05.669Z,99395.69
2022-12-09T14:02:34.046Z,99401.19
2022-12-09T14:05:37.024Z,99402.47
2022-12-09T14:08:48.132Z,99404.81
2022-12-09T14:11:53.529Z,99396.94
2022-12-09T14:14:58.347Z,99395.94
2022-12-09T14:18:05.784Z,99397.25
2022-12-09T14:21:20.155Z,99402.97
2022-12-09T14:24:22.298Z,99382.34
2022-12-09T14:27:33.517Z,99380.78
2022-12-09T14:30:52.827Z,99377.16
2022-12-09T14:33:55.569Z,99375.34
2022-12-09T14:37:25.006Z,99377.94
2022-12-09T14:40:45.118Z,99363.84
2022-12-09T14:44:06.063Z,99351.84
2022-12-09T14:47:28.363Z,99340.13
2022-12-09T14:50:30.778Z,99341.44
2022-12-09T14:53:35.692Z,99338.06
2022-12-09T14:56:38.135Z,99340.41
2022-12-09T14:59:49.289Z,99330.50
2022-12-09T15:03:15.560Z,99312.22
2022-12-09T15:06:19.515Z,99311.72
2022-12-09T15:09:21.779Z,99288.75
2022-12-09T15:12:39.609Z,99297.09
2022-12-09T15:15:42.515Z,99309.91
2022-12-09T15:18:45.976Z,99308.59
2022-12-09T15:21:49.655Z,99317.97
2022-12-09T15:24:53.171Z,99308.84
2022-12-09T15:28:03.038Z,99304.13
2022-12-09T15:31:13.903Z,99300.50
2022-12-09T15:34:24.783Z,99289.78
2022-12-09T15:37:29.226Z,99287.69
2022-12-09T15:40:34.192Z,99291.38
2022-12-09T15:43:38.389Z,99280.41
2022-12-09T15:46:43.600Z,99276.47
2022-12-09T15:49:53.789Z,99273.63
2022-12-09T15:53:04.743Z,99265.00
2022-12-09T15:56:13.543Z,99250.13
2022-12-09T15:59:21.420Z,99243.91
2022-12-09T16:02:29.844Z,99236.59
2022-12-09T16:05:34.918Z,99236.31
2022-12-09T16:08:43.072Z,99241.53
2022-12-09T16:11:48.684Z,99248.06
2022-12-09T16:14:51.197Z,99234.78
2022-12-09T16:17:56.698Z,99233.19
2022-12-09T16:21:30.977Z,99227.19
2022-12-09T16:25:06.040Z,99211.81
2022-12-09T16:28:02.590Z,99209.44
2022-12-09T16:31:18.686Z,99221.69
2022-12-09T16:34:22.619Z,99205.81
2022-12-09T16:37:36.860Z,99201.09
2022-12-09T16:40:44.905Z,99194.34
